Time;durP1;ratioP1;P1;durP2;ratioP2;P2;SDS_P1;SDS_P2;PMS_P1;PMS_P2;Temp;Humidity;BMP_temperature;BMP_pressure;BME280_temperature;BME280_humidity;BME280_pressure;Samples;Min_cycle;Max_cycle;Signal;HPM_P1;HPM_P2
2023/12/26 00:02:16;;;;;;;4.82;2.30;;;;;;;11.06;72.53;96878.25;4891578;28;20293;-85
2023/12/26 00:04:42;;;;;;;2.95;1.80;;;;;;;11.04;72.32;96861.31;4887228;28;20193;-84
2023/12/26 00:07:07;;;;;;;4.03;2.33;;;;;;;11.00;72.39;96852.41;4896307;28;20197;-85
2023/12/26 00:09:33;;;;;;;4.32;1.90;;;;;;;10.92;72.87;96873.78;4900529;28;20220;-86
2023/12/26 00:11:58;;;;;;;3.20;2.08;;;;;;;10.73;73.62;96862.97;4886210;28;20275;-84
2023/12/26 00:14:23;;;;;;;4.88;2.22;;;;;;;11.12;71.56;96868.66;4899718;28;20196;-86
2023/12/26 00:16:49;;;;;;;3.88;2.10;;;;;;;11.20;71.34;96864.75;4904951;28;20202;-85
2023/12/26 00:19:14;;;;;;;2.75;2.08;;;;;;;10.96;71.71;96846.94;4888855;28;20650;-86
2023/12/26 00:21:40;;;;;;;3.35;2.03;;;;;;;11.18;71.66;96853.81;4882418;28;20591;-83
2023/12/26 00:24:06;;;;;;;4.70;2.53;;;;;;;11.12;72.35;96853.00;4898636;28;20252;-83
2023/12/26 00:26:32;;;;;;;3.58;2.58;;;;;;;11.03;72.45;96852.69;4904558;28;20064;-85
2023/12/26 00:28:58;;;;;;;3.67;2.20;;;;;;;11.14;71.18;96848.31;4904212;28;20301;-85
2023/12/26 00:31:23;;;;;;;3.42;2.20;;;;;;;10.99;71.91;96836.00;4887433;28;20382;-82
2023/12/26 00:33:48;;;;;;;6.18;2.58;;;;;;;11.08;71.59;96849.34;4878868;28;20205;-83
2023/12/26 00:36:18;;;;;;;3.92;1.90;;;;;;;11.00;72.16;96837.59;4909073;28;20279;-83
2023/12/26 00:38:45;;;;;;;4.45;2.30;;;;;;;10.84;72.65;96835.94;4878315;28;20266;-85
2023/12/26 00:41:13;;;;;;;4.47;2.28;;;;;;;10.60;73.10;96840.78;4912871;28;20282;-86
2023/12/26 00:43:39;;;;;;;4.18;2.42;;;;;;;10.48;72.90;96826.13;4903086;28;20303;-83
2023/12/26 00:46:05;;;;;;;6.45;2.60;;;;;;;10.94;72.36;96845.63;4892385;28;20279;-84
2023/12/26 00:48:30;;;;;;;4.90;2.53;;;;;;;10.96;72.15;96828.72;4912117;28;20072;-86
2023/12/26 00:50:55;;;;;;;3.22;2.35;;;;;;;10.67;72.91;96841.34;4909307;28;20248;-84
2023/12/26 00:53:22;;;;;;;3.72;2.40;;;;;;;10.82;72.00;96825.00;4881738;28;20346;-85
2023/12/26 00:55:47;;;;;;;3.53;2.38;;;;;;;10.95;72.17;96848.00;4887541;28;20241;-84
2023/12/26 00:58:13;;;;;;;3.55;2.42;;;;;;;11.06;71.69;96852.19;4896766;28;20261;-84
2023/12/26 01:00:38;;;;;;;3.97;2.42;;;;;;;11.07;71.51;96847.78;4893526;28;20185;-84
2023/12/26 01:03:03;;;;;;;2.47;2.08;;;;;;;10.85;72.31;96855.75;4881898;28;20444;-82
2023/12/26 01:05:29;;;;;;;5.05;2.45;;;;;;;10.82;72.72;96844.03;4910242;28;20353;-87
2023/12/26 01:07:55;;;;;;;3.72;2.00;;;;;;;10.80;72.65;96859.13;4903687;28;20179;-85
2023/12/26 01:10:20;;;;;;;2.33;1.90;;;;;;;11.08;71.52;96866.78;4898942;28;20197;-84
2023/12/26 01:12:46;;;;;;;2.75;1.77;;;;;;;10.76;73.34;96852.06;4914188;28;20458;-86
2023/12/26 01:15:13;;;;;;;2.92;1.85;;;;;;;10.78;73.05;96871.63;4883595;28;20167;-85
2023/12/26 01:17:38;;;;;;;2.60;1.80;;;;;;;10.57;73.20;96844.66;4901555;28;20233;-87
2023/12/26 01:20:05;;;;;;;4.55;1.40;;;;;;;10.73;72.09;96853.38;4919983;28;20307;-85
2023/12/26 01:22:30;;;;;;;3.47;2.30;;;;;;;10.76;72.76;96872.88;4915609;28;20206;-83
2023/12/26 01:24:55;;;;;;;3.38;2.10;;;;;;;10.73;73.17;96883.81;4897744;28;20246;-84
2023/12/26 01:27:21;;;;;;;3.28;2.20;;;;;;;10.66;72.06;96869.22;4898131;28;20135;-84
2023/12/26 01:29:48;;;;;;;5.15;2.05;;;;;;;10.95;71.72;96871.44;4879389;28;20611;-85
2023/12/26 01:32:14;;;;;;;6.32;2.90;;;;;;;10.99;71.03;96874.31;4888274;28;20218;-85
2023/12/26 01:34:39;;;;;;;4.88;2.72;;;;;;;11.14;71.25;96884.81;4896666;28;20643;-86
2023/12/26 01:37:05;;;;;;;10.18;3.20;;;;;;;11.00;71.35;96887.09;4902843;28;20373;-85
2023/12/26 01:39:31;;;;;;;5.75;2.17;;;;;;;10.96;71.16;96859.97;4916488;28;20729;-84
2023/12/26 01:41:56;;;;;;;6.85;2.60;;;;;;;11.04;71.37;96884.75;4916388;28;20212;-83
2023/12/26 01:44:22;;;;;;;6.50;3.13;;;;;;;10.70;71.97;96858.28;4897991;28;20611;-87
2023/12/26 01:46:48;;;;;;;7.80;3.53;;;;;;;10.93;71.55;96891.72;4889760;28;20208;-85
2023/12/26 01:49:13;;;;;;;6.57;3.10;;;;;;;10.97;71.38;96890.19;4915664;28;20260;-85
2023/12/26 01:51:39;;;;;;;7.00;3.22;;;;;;;10.70;72.57;96899.94;4912401;28;20204;-85
2023/12/26 01:54:05;;;;;;;9.88;4.07;;;;;;;10.85;71.77;96881.81;4914687;28;20240;-84
2023/12/26 01:56:30;;;;;;;5.05;3.00;;;;;;;10.94;71.64;96890.69;4898370;28;20258;-84
2023/12/26 01:58:56;;;;;;;7.72;3.30;;;;;;;10.92;71.72;96902.41;4893069;28;20279;-85
2023/12/26 02:01:21;;;;;;;5.80;2.88;;;;;;;10.79;72.19;96888.78;4921266;28;20210;-83
2023/12/26 02:03:47;;;;;;;5.00;3.20;;;;;;;10.89;71.72;96903.69;4899140;28;20030;-84
2023/12/26 02:06:14;;;;;;;11.52;3.90;;;;;;;10.85;71.42;96902.66;4916412;28;20209;-86
2023/12/26 02:08:40;;;;;;;10.88;3.58;;;;;;;10.79;72.21;96914.84;4893849;28;20683;-81
2023/12/26 02:11:06;;;;;;;7.97;3.33;;;;;;;10.75;71.95;96897.38;4895815;28;20261;-82
2023/12/26 02:13:33;;;;;;;5.68;2.92;;;;;;;11.00;70.65;96902.72;4898255;28;20610;-83
2023/12/26 02:16:01;;;;;;;5.90;3.17;;;;;;;10.96;71.12;96909.47;4903136;28;20720;-82
2023/12/26 02:18:27;;;;;;;8.18;3.47;;;;;;;10.77;71.87;96908.31;4908359;28;20265;-83
2023/12/26 02:20:53;;;;;;;10.18;3.67;;;;;;;10.81;71.47;96918.00;4885381;28;20329;-84
2023/12/26 02:23:18;;;;;;;4.53;2.33;;;;;;;10.77;72.40;96914.31;4865627;28;20177;-83
2023/12/26 02:25:44;;;;;;;11.65;4.22;;;;;;;10.77;72.10;96916.13;4914585;28;20167;-83
2023/12/26 02:28:09;;;;;;;10.02;3.08;;;;;;;10.55;71.93;96904.00;4897192;28;20030;-83
2023/12/26 02:30:36;;;;;;;8.85;3.00;;;;;;;10.86;71.36;96919.81;4905492;28;20219;-85
2023/12/26 02:33:02;;;;;;;6.53;2.90;;;;;;;10.80;71.88;96919.00;4895421;28;20190;-81
2023/12/26 02:35:28;;;;;;;12.73;2.88;;;;;;;10.84;70.70;96911.47;4888750;28;20403;-81
2023/12/26 02:37:54;;;;;;;6.50;2.85;;;;;;;10.95;70.44;96917.53;4919663;28;20254;-84
2023/12/26 02:40:19;;;;;;;5.75;2.42;;;;;;;10.94;70.80;96921.19;4896212;28;20268;-84
2023/12/26 02:42:45;;;;;;;6.68;2.78;;;;;;;10.87;70.93;96930.00;4880541;28;20171;-83
2023/12/26 02:45:10;;;;;;;9.18;3.00;;;;;;;10.91;71.27;96932.88;4894226;28;20249;-82
2023/12/26 02:47:36;;;;;;;6.18;2.95;;;;;;;10.77;71.23;96911.69;4894337;28;20178;-82
2023/12/26 02:50:01;;;;;;;6.35;2.42;;;;;;;10.83;71.39;96922.91;4917224;28;20271;-84
2023/12/26 02:52:27;;;;;;;6.20;3.08;;;;;;;10.83;71.00;96931.53;4884250;28;20285;-82
2023/12/26 02:54:52;;;;;;;7.95;3.00;;;;;;;10.89;71.36;96927.13;4894203;28;20212;-86
2023/12/26 02:57:17;;;;;;;10.15;3.42;;;;;;;10.67;71.42;96909.03;4899043;28;20762;-83
2023/12/26 02:59:43;;;;;;;7.90;3.10;;;;;;;10.42;71.81;96918.25;4877547;28;20271;-83
2023/12/26 03:02:08;;;;;;;8.07;2.95;;;;;;;10.56;71.01;96902.22;4906804;28;20182;-84
2023/12/26 03:04:34;;;;;;;8.13;2.72;;;;;;;10.75;71.24;96928.63;4892189;28;20313;-81
2023/12/26 03:07:00;;;;;;;5.15;2.40;;;;;;;10.63;71.34;96911.34;4910071;28;20033;-81
2023/12/26 03:09:25;;;;;;;9.50;2.88;;;;;;;10.88;71.21;96922.94;4896202;28;20034;-82
2023/12/26 03:11:51;;;;;;;9.05;2.30;;;;;;;10.78;71.39;96920.28;4907768;28;20052;-81
2023/12/26 03:14:17;;;;;;;7.45;2.35;;;;;;;10.59;71.85;96915.50;4906307;28;20259;-81
2023/12/26 03:16:42;;;;;;;7.63;2.67;;;;;;;10.71;70.92;96907.50;4904895;28;20038;-83
2023/12/26 03:19:08;;;;;;;10.02;2.90;;;;;;;10.33;71.96;96905.94;4909627;28;20348;-83
2023/12/26 03:21:33;;;;;;;7.18;2.80;;;;;;;10.54;72.10;96901.66;4893228;28;20111;-81
2023/12/26 03:23:59;;;;;;;7.57;2.22;;;;;;;10.81;71.11;96904.97;4883543;28;20022;-81
2023/12/26 03:26:25;;;;;;;8.15;2.33;;;;;;;10.84;70.49;96901.84;4905334;28;20378;-82
2023/12/26 03:28:52;;;;;;;8.65;2.50;;;;;;;10.68;71.23;96906.19;4880658;28;20813;-84
2023/12/26 03:31:18;;;;;;;9.60;2.83;;;;;;;10.88;70.70;96904.72;4886181;28;20306;-84
2023/12/26 03:33:44;;;;;;;11.88;3.05;;;;;;;10.71;71.41;96896.28;4900187;28;20304;-82
2023/12/26 03:36:10;;;;;;;8.70;2.55;;;;;;;10.68;70.81;96897.59;4876415;28;20708;-83
2023/12/26 03:38:36;;;;;;;8.05;2.65;;;;;;;10.61;71.05;96904.84;4877762;28;20196;-81
2023/12/26 03:41:02;;;;;;;9.10;2.60;;;;;;;10.70;70.89;96897.34;4898182;28;20312;-81
2023/12/26 03:43:27;;;;;;;5.07;2.58;;;;;;;10.83;70.33;96889.06;4916532;28;20210;-82
2023/12/26 03:45:53;;;;;;;10.20;2.78;;;;;;;10.80;70.42;96900.78;4894339;28;20125;-82
2023/12/26 03:48:20;;;;;;;5.15;2.13;;;;;;;10.56;71.08;96892.56;4893731;28;20033;-81
2023/12/26 03:50:46;;;;;;;7.40;2.30;;;;;;;10.77;70.78;96888.25;4923639;28;20552;-82
2023/12/26 03:53:12;;;;;;;9.63;2.72;;;;;;;10.73;71.00;96886.41;4901965;28;20065;-82
2023/12/26 03:55:38;;;;;;;9.10;2.45;;;;;;;10.72;70.80;96897.88;4920541;28;20296;-85
2023/12/26 03:58:03;;;;;;;7.43;2.72;;;;;;;10.54;71.27;96889.44;4903485;28;20767;-82
2023/12/26 04:00:29;;;;;;;8.07;2.35;;;;;;;10.65;70.97;96898.09;4894851;28;20247;-82
2023/12/26 04:02:55;;;;;;;7.00;2.20;;;;;;;10.72;70.90;96892.66;4895950;28;20041;-82
2023/12/26 04:05:21;;;;;;;6.65;3.28;;;;;;;10.60;70.95;96896.22;4899621;28;20061;-83
2023/12/26 04:07:47;;;;;;;4.30;2.47;;;;;;;10.61;71.42;96903.03;4906834;28;20601;-83
2023/12/26 04:10:13;;;;;;;4.80;2.58;;;;;;;10.81;70.70;96909.38;4876332;28;20300;-82
2023/12/26 04:12:39;;;;;;;8.43;2.10;;;;;;;10.79;70.48;96898.44;4895279;28;20256;-83
2023/12/26 04:15:05;;;;;;;8.18;2.53;;;;;;;10.70;70.63;96890.31;4890221;28;20292;-82
2023/12/26 04:17:30;;;;;;;8.50;3.50;;;;;;;10.49;70.80;96910.22;4919655;28;20279;-83
2023/12/26 04:19:56;;;;;;;6.22;2.28;;;;;;;10.81;70.07;96911.97;4912103;28;20151;-86
2023/12/26 04:22:21;;;;;;;8.25;2.45;;;;;;;10.78;70.22;96908.06;4913137;28;20201;-84
2023/12/26 04:24:47;;;;;;;7.90;2.50;;;;;;;10.73;70.53;96891.63;4890861;28;20214;-82
2023/12/26 04:27:13;;;;;;;5.85;1.88;;;;;;;10.68;70.29;96900.19;4889386;28;20190;-82
2023/12/26 04:29:38;;;;;;;7.30;1.92;;;;;;;10.72;70.27;96903.84;4903709;28;20259;-83
2023/12/26 04:32:06;;;;;;;5.65;2.42;;;;;;;10.63;70.74;96892.34;4893694;28;20092;-83
2023/12/26 04:34:32;;;;;;;7.75;2.53;;;;;;;10.78;70.90;96902.06;4891953;28;20117;-83
2023/12/26 04:36:58;;;;;;;5.72;1.90;;;;;;;10.68;71.22;96908.78;4897310;28;20284;-82
2023/12/26 04:39:23;;;;;;;10.52;2.90;;;;;;;10.65;70.54;96890.28;4908961;28;20100;-83
2023/12/26 04:41:50;;;;;;;8.55;2.65;;;;;;;10.47;71.21;96902.66;4885530;28;20737;-87
2023/12/26 04:44:16;;;;;;;7.65;2.10;;;;;;;10.43;71.98;96917.19;4875159;28;20183;-84
2023/12/26 04:46:42;;;;;;;6.35;2.35;;;;;;;10.68;71.48;96910.63;4879897;28;20861;-83
2023/12/26 04:49:08;;;;;;;9.18;2.15;;;;;;;10.73;70.58;96902.03;4898026;28;20080;-82
2023/12/26 04:51:33;;;;;;;5.80;2.28;;;;;;;10.58;71.54;96902.75;4894751;28;20070;-85
2023/12/26 04:54:00;;;;;;;6.50;2.80;;;;;;;10.57;71.54;96904.53;4904465;28;20033;-83
2023/12/26 04:56:27;;;;;;;6.15;2.17;;;;;;;10.58;70.74;96907.94;4880571;28;20027;-83
2023/12/26 04:58:52;;;;;;;9.10;2.20;;;;;;;10.53;71.41;96902.72;4927000;28;20037;-81
2023/12/26 05:01:20;;;;;;;10.70;2.30;;;;;;;10.78;70.92;96912.47;4890549;28;20726;-82
2023/12/26 05:03:46;;;;;;;5.70;2.15;;;;;;;10.76;70.76;96917.97;4918786;28;20061;-83
2023/12/26 05:06:12;;;;;;;7.30;2.55;;;;;;;10.67;70.50;96909.81;4907184;28;20019;-83
2023/12/26 05:08:39;;;;;;;7.13;2.60;;;;;;;10.83;70.61;96917.72;4908254;28;20280;-84
2023/12/26 05:11:05;;;;;;;6.82;2.42;;;;;;;10.92;69.96;96928.47;4917425;28;20498;-82
2023/12/26 05:13:32;;;;;;;6.75;2.88;;;;;;;10.82;70.45;96939.59;4907972;28;20272;-83
2023/12/26 05:16:01;;;;;;;6.00;2.20;;;;;;;10.90;70.11;96941.75;4920045;28;20585;-83
2023/12/26 05:18:27;;;;;;;8.35;2.08;;;;;;;10.84;70.18;96924.50;4893107;28;20205;-84
2023/12/26 05:20:52;;;;;;;6.65;2.03;;;;;;;10.86;70.06;96933.66;4891252;28;20038;-83
2023/12/26 05:23:17;;;;;;;7.72;2.50;;;;;;;11.00;69.44;96914.94;4881236;28;20171;-82
2023/12/26 05:25:43;;;;;;;6.90;2.50;;;;;;;10.92;69.44;96934.44;4915127;28;20596;-83
2023/12/26 05:28:08;;;;;;;9.20;1.83;;;;;;;10.89;70.38;96928.97;4901797;28;20170;-82
2023/12/26 05:30:34;;;;;;;4.72;2.13;;;;;;;10.80;69.78;96932.03;4911515;28;20256;-82
2023/12/26 05:32:59;;;;;;;5.88;2.30;;;;;;;10.89;70.01;96936.78;4894456;28;20229;-82
2023/12/26 05:35:25;;;;;;;6.47;1.95;;;;;;;10.79;70.00;96943.47;4910937;28;20221;-83
2023/12/26 05:37:50;;;;;;;10.30;2.50;;;;;;;10.91;69.86;96940.69;4877939;28;20283;-82
2023/12/26 05:40:15;;;;;;;5.85;2.03;;;;;;;10.89;69.87;96950.59;4909477;28;20178;-81
2023/12/26 05:42:41;;;;;;;7.47;2.10;;;;;;;11.01;69.79;96956.38;4880468;28;20587;-81
2023/12/26 05:45:07;;;;;;;8.70;3.25;;;;;;;10.96;69.63;96955.56;4894654;28;20274;-81
2023/12/26 05:47:32;;;;;;;6.70;2.25;;;;;;;10.85;70.33;96970.38;4914276;28;20257;-81
2023/12/26 05:49:58;;;;;;;7.68;2.17;;;;;;;10.86;70.35;96971.91;4900957;28;20205;-81
2023/12/26 05:52:27;;;;;;;6.03;2.33;;;;;;;10.95;69.27;96982.66;4882045;28;20624;-82
2023/12/26 05:54:52;;;;;;;8.20;2.30;;;;;;;10.93;70.14;96984.72;4881535;28;20245;-83
2023/12/26 05:57:18;;;;;;;10.32;2.33;;;;;;;10.95;69.76;96990.47;4879621;28;20123;-81
2023/12/26 05:59:43;;;;;;;5.68;1.98;;;;;;;10.78;70.41;96985.41;4914442;28;20112;-81
2023/12/26 06:02:09;;;;;;;5.68;2.40;;;;;;;10.77;70.41;96986.44;4910222;28;20643;-82
2023/12/26 06:04:34;;;;;;;8.00;1.90;;;;;;;10.84;70.59;96995.59;4879652;28;20140;-82
2023/12/26 06:06:59;;;;;;;11.13;2.42;;;;;;;10.82;70.36;96991.69;4900399;28;20266;-83
2023/12/26 06:09:26;;;;;;;8.98;2.15;;;;;;;10.75;70.70;96997.09;4897959;28;20270;-81
2023/12/26 06:11:52;;;;;;;7.22;2.50;;;;;;;10.59;70.49;96995.41;4880305;28;20763;-83
2023/12/26 06:14:17;;;;;;;5.05;1.83;;;;;;;10.96;69.78;97011.06;4900988;28;20053;-84
2023/12/26 06:16:43;;;;;;;9.88;2.30;;;;;;;10.73;70.28;97000.97;4898275;28;20198;-81
2023/12/26 06:19:09;;;;;;;5.43;2.22;;;;;;;10.87;70.34;97009.97;4913259;28;20277;-82
2023/12/26 06:21:35;;;;;;;10.25;2.38;;;;;;;10.78;70.25;97014.84;4910913;28;20038;-82
2023/12/26 06:24:01;;;;;;;7.95;2.22;;;;;;;10.66;71.23;97007.19;4898994;28;20347;-83
2023/12/26 06:26:26;;;;;;;9.27;2.97;;;;;;;10.62;70.99;97013.91;4883075;28;20720;-81
2023/12/26 06:28:52;;;;;;;7.00;2.30;;;;;;;10.72;70.79;97012.44;4897854;28;20250;-82
2023/12/26 06:31:18;;;;;;;6.53;2.25;;;;;;;10.78;70.28;97033.06;4899054;28;20178;-84
2023/12/26 06:33:44;;;;;;;6.07;3.05;;;;;;;10.79;70.47;97024.22;4883903;28;20071;-82
2023/12/26 06:36:09;;;;;;;7.68;2.40;;;;;;;10.89;69.85;97017.53;4895309;28;20242;-82
2023/12/26 06:38:35;;;;;;;8.90;2.55;;;;;;;10.84;70.23;97036.50;4895167;28;20217;-82
2023/12/26 06:41:01;;;;;;;10.02;2.05;;;;;;;10.88;70.07;97027.13;4885451;28;20030;-83
2023/12/26 06:43:28;;;;;;;8.63;2.47;;;;;;;10.78;70.74;97038.28;4915807;28;20280;-85
2023/12/26 06:45:54;;;;;;;9.23;2.72;;;;;;;10.63;71.06;97020.72;4883959;28;20218;-82
2023/12/26 06:48:19;;;;;;;8.43;3.75;;;;;;;10.81;70.82;97034.38;4900243;28;20678;-82
2023/12/26 06:50:45;;;;;;;7.85;2.25;;;;;;;10.70;71.52;97056.19;4886398;28;20310;-82
2023/12/26 06:53:10;;;;;;;6.55;2.25;;;;;;;10.80;70.58;97044.03;4903010;28;20357;-82
2023/12/26 06:55:36;;;;;;;9.48;2.67;;;;;;;10.83;70.70;97040.13;4919125;28;20222;-81
2023/12/26 06:58:01;;;;;;;7.03;2.88;;;;;;;10.80;71.10;97046.63;4885576;28;20213;-81
2023/12/26 07:00:27;;;;;;;7.03;3.03;;;;;;;10.73;70.71;97055.66;4888754;28;20761;-81
2023/12/26 07:02:54;;;;;;;10.68;3.08;;;;;;;10.77;70.34;97064.56;4899097;28;20265;-83
2023/12/26 07:05:20;;;;;;;11.00;2.88;;;;;;;10.58;71.19;97064.16;4879306;28;20688;-81
2023/12/26 07:07:45;;;;;;;7.78;2.53;;;;;;;10.82;70.88;97059.41;4913263;28;20382;-82
2023/12/26 07:10:11;;;;;;;4.60;2.70;;;;;;;10.60;71.19;97054.28;4863162;28;20670;-83
2023/12/26 07:12:37;;;;;;;10.20;3.22;;;;;;;10.78;70.84;97063.53;4914225;28;21772;-83
2023/12/26 07:15:04;;;;;;;10.18;2.47;;;;;;;10.69;71.02;97057.97;4878171;28;20523;-84
2023/12/26 07:17:30;;;;;;;6.72;2.42;;;;;;;10.72;71.02;97067.91;4903765;28;20748;-84
2023/12/26 07:19:55;;;;;;;5.20;2.42;;;;;;;10.74;71.21;97078.09;4880494;28;20277;-83
2023/12/26 07:22:20;;;;;;;5.72;2.50;;;;;;;10.80;70.56;97077.88;4905460;28;20167;-83
2023/12/26 07:24:46;;;;;;;10.77;2.70;;;;;;;10.76;71.11;97087.22;4895450;28;20362;-85
2023/12/26 07:27:11;;;;;;;6.38;2.30;;;;;;;10.72;71.79;97086.13;4899526;28;20202;-85
2023/12/26 07:29:37;;;;;;;5.45;2.70;;;;;;;10.57;71.90;97089.38;4897247;28;20341;-83
2023/12/26 07:32:02;;;;;;;5.60;2.80;;;;;;;10.60;71.38;97081.09;4915938;28;20197;-85
2023/12/26 07:34:28;;;;;;;8.10;3.17;;;;;;;10.61;71.12;97095.69;4911796;28;20197;-83
2023/12/26 07:36:53;;;;;;;4.93;2.60;;;;;;;10.64;70.71;97100.41;4882403;28;20603;-85
2023/12/26 07:39:19;;;;;;;6.65;2.85;;;;;;;10.64;70.77;97103.00;4899523;28;20242;-87
2023/12/26 07:41:44;;;;;;;3.90;2.53;;;;;;;10.68;71.49;97093.66;4876753;28;20198;-84
2023/12/26 07:44:10;;;;;;;11.07;3.53;;;;;;;10.63;71.42;97098.81;4903858;28;20270;-83
2023/12/26 07:46:35;;;;;;;3.35;2.40;;;;;;;10.55;72.04;97103.69;4893100;28;20300;-86
2023/12/26 07:49:01;;;;;;;5.32;2.90;;;;;;;10.55;71.52;97114.09;4913811;28;20300;-85
2023/12/26 07:51:26;;;;;;;5.05;2.50;;;;;;;10.49;71.65;97110.66;4882925;28;20191;-81
2023/12/26 07:53:52;;;;;;;10.73;3.72;;;;;;;10.43;71.81;97115.00;4912453;28;20683;-85
2023/12/26 07:56:18;;;;;;;4.55;2.70;;;;;;;10.64;70.96;97118.63;4897822;28;20627;-85
2023/12/26 07:58:44;;;;;;;7.60;2.90;;;;;;;10.62;71.38;97112.84;4901553;28;20267;-84
2023/12/26 08:01:09;;;;;;;5.40;3.08;;;;;;;10.86;70.74;97143.81;4903479;28;20604;-84
2023/12/26 08:03:35;;;;;;;4.50;3.00;;;;;;;10.88;70.80;97152.16;4901832;28;20213;-84
2023/12/26 08:06:00;;;;;;;3.97;2.50;;;;;;;10.63;71.06;97129.28;4900907;28;20294;-83
2023/12/26 08:08:26;;;;;;;5.10;2.30;;;;;;;10.58;71.23;97150.84;4920167;28;20213;-84
2023/12/26 08:10:51;;;;;;;5.22;2.00;;;;;;;10.65;70.88;97148.06;4889288;28;20254;-85
2023/12/26 08:13:16;;;;;;;4.30;1.70;;;;;;;10.67;71.48;97159.78;4912204;28;20291;-83
2023/12/26 08:15:42;;;;;;;5.97;2.33;;;;;;;10.59;71.22;97156.81;4899957;28;20259;-83
2023/12/26 08:18:07;;;;;;;2.58;1.45;;;;;;;10.68;70.61;97168.41;4898243;28;20218;-87
2023/12/26 08:20:33;;;;;;;2.92;1.40;;;;;;;10.53;71.36;97166.41;4917969;28;20300;-88
2023/12/26 08:23:00;;;;;;;2.83;1.58;;;;;;;10.72;70.81;97163.47;4878841;28;20174;-85
2023/12/26 08:25:25;;;;;;;2.50;1.40;;;;;;;10.47;71.96;97159.59;4899835;28;20268;-83
2023/12/26 08:27:51;;;;;;;2.50;1.30;;;;;;;10.45;72.23;97159.03;4887141;28;20197;-89
2023/12/26 08:30:18;;;;;;;2.25;1.10;;;;;;;10.64;71.11;97173.31;4876124;28;20217;-86
2023/12/26 08:32:43;;;;;;;2.20;1.35;;;;;;;10.63;71.84;97163.13;4882764;28;20111;-86
2023/12/26 08:35:09;;;;;;;2.55;1.00;;;;;;;10.60;71.04;97174.03;4895179;28;20210;-84
2023/12/26 08:37:34;;;;;;;1.80;1.02;;;;;;;10.75;70.96;97170.81;4892795;28;20275;-86
2023/12/26 08:39:59;;;;;;;2.65;1.20;;;;;;;10.67;71.46;97172.03;4870053;28;20214;-83
2023/12/26 08:42:25;;;;;;;2.60;1.10;;;;;;;10.78;71.17;97186.72;4911731;28;20208;-84
2023/12/26 08:44:50;;;;;;;1.45;1.05;;;;;;;10.74;71.32;97187.47;4908995;28;20734;-83
2023/12/26 08:47:16;;;;;;;1.95;1.10;;;;;;;10.53;71.67;97176.03;4918304;28;20096;-83
2023/12/26 08:49:41;;;;;;;3.63;1.10;;;;;;;10.58;70.95;97179.47;4893612;28;21142;-85
2023/12/26 08:52:06;;;;;;;2.05;0.90;;;;;;;10.72;71.56;97195.50;4895321;28;20270;-84
2023/12/26 08:54:32;;;;;;;1.63;1.00;;;;;;;10.70;71.15;97191.59;4901146;28;20072;-84
2023/12/26 08:56:57;;;;;;;3.15;1.27;;;;;;;10.77;71.01;97189.59;4875780;28;20213;-84
2023/12/26 08:59:23;;;;;;;1.85;0.95;;;;;;;10.55;71.79;97184.38;4882569;28;20193;-84
2023/12/26 09:01:48;;;;;;;3.90;1.50;;;;;;;10.71;71.93;97214.78;4892715;28;20250;-85
2023/12/26 09:04:14;;;;;;;2.70;1.27;;;;;;;10.68;71.32;97221.25;4900426;28;20114;-85
2023/12/26 09:06:39;;;;;;;2.08;1.13;;;;;;;10.81;70.77;97233.13;4895603;28;20193;-81
2023/12/26 09:09:05;;;;;;;1.77;1.13;;;;;;;10.95;71.03;97238.75;4892921;28;20722;-82
2023/12/26 09:11:30;;;;;;;2.38;1.15;;;;;;;10.82;71.62;97241.72;4874494;28;20210;-83
2023/12/26 09:13:56;;;;;;;2.17;1.40;;;;;;;11.00;70.43;97238.81;4890113;28;20597;-82
2023/12/26 09:16:22;;;;;;;3.15;2.10;;;;;;;10.95;70.59;97233.53;4892603;28;20700;-82
2023/12/26 09:18:47;;;;;;;1.63;1.10;;;;;;;10.76;71.19;97242.69;4908811;28;20225;-86
2023/12/26 09:21:13;;;;;;;3.22;1.00;;;;;;;10.63;71.32;97243.84;4886863;28;20198;-84
2023/12/26 09:23:39;;;;;;;3.30;1.05;;;;;;;10.75;71.16;97235.91;4880836;28;20371;-83
2023/12/26 09:26:05;;;;;;;1.40;1.10;;;;;;;10.90;70.93;97259.53;4878955;28;20277;-86
2023/12/26 09:28:31;;;;;;;3.05;1.17;;;;;;;11.04;70.29;97255.50;4896256;28;20289;-83
2023/12/26 09:30:57;;;;;;;3.20;1.30;;;;;;;10.90;70.64;97253.50;4896976;28;20319;-83
2023/12/26 09:33:22;;;;;;;1.75;0.80;;;;;;;10.90;71.02;97269.94;4909846;28;20380;-82
2023/12/26 09:35:48;;;;;;;1.30;1.15;;;;;;;11.07;70.61;97269.88;4893719;28;20035;-82
2023/12/26 09:38:13;;;;;;;1.50;1.15;;;;;;;10.87;71.03;97262.63;4901112;28;20286;-83
2023/12/26 09:40:39;;;;;;;1.38;1.10;;;;;;;10.83;71.20;97269.31;4898028;28;20274;-84
2023/12/26 09:43:04;;;;;;;2.00;1.20;;;;;;;11.02;70.92;97285.44;4901266;28;20228;-83
2023/12/26 09:45:33;;;;;;;2.72;1.23;;;;;;;10.75;71.85;97288.00;4884489;28;20237;-82
2023/12/26 09:47:59;;;;;;;1.90;1.17;;;;;;;11.02;70.79;97290.66;4895689;28;20783;-84
2023/12/26 09:50:25;;;;;;;2.67;1.20;;;;;;;11.06;70.48;97289.91;4906586;28;20175;-82
2023/12/26 09:52:52;;;;;;;2.60;1.38;;;;;;;11.01;70.86;97296.91;4894933;28;20198;-83
2023/12/26 09:55:19;;;;;;;3.00;1.23;;;;;;;10.87;70.99;97286.06;4880170;28;20182;-84
2023/12/26 09:57:45;;;;;;;1.13;1.00;;;;;;;10.88;70.75;97290.22;4913615;28;20192;-84
2023/12/26 10:00:11;;;;;;;2.00;1.25;;;;;;;10.98;70.05;97286.94;4876335;28;20235;-85
2023/12/26 10:02:36;;;;;;;2.83;1.40;;;;;;;10.92;71.64;97303.56;4899166;28;20263;-84
2023/12/26 10:05:02;;;;;;;2.78;1.35;;;;;;;11.11;70.20;97288.41;4911616;28;20609;-83
2023/12/26 10:07:28;;;;;;;3.58;1.70;;;;;;;11.06;70.75;97315.97;4895645;28;20706;-83
2023/12/26 10:09:54;;;;;;;4.05;1.58;;;;;;;11.18;69.97;97310.63;4882300;28;20232;-84
2023/12/26 10:12:19;;;;;;;2.47;1.80;;;;;;;11.03;70.44;97323.50;4912394;28;20890;-85
2023/12/26 10:14:44;;;;;;;1.67;1.35;;;;;;;11.24;69.94;97327.91;4896533;28;20708;-82
2023/12/26 10:17:12;;;;;;;1.92;1.30;;;;;;;11.01;70.75;97315.91;4884875;28;20649;-83
2023/12/26 10:19:38;;;;;;;1.75;1.50;;;;;;;11.10;69.82;97321.47;4894729;28;20168;-84
2023/12/26 10:22:03;;;;;;;1.77;1.50;;;;;;;11.12;70.56;97334.28;4889972;28;20111;-84
2023/12/26 10:24:29;;;;;;;3.08;1.30;;;;;;;11.13;70.25;97323.59;4882920;28;20107;-85
2023/12/26 10:26:54;;;;;;;1.52;1.42;;;;;;;10.96;71.23;97330.69;4881516;28;20268;-83
2023/12/26 10:29:20;;;;;;;3.20;1.23;;;;;;;11.13;70.53;97335.84;4882646;28;20104;-84
2023/12/26 10:31:45;;;;;;;5.10;1.83;;;;;;;11.23;70.21;97335.97;4889956;28;20236;-84
2023/12/26 10:34:19;;;;;;;3.58;1.10;;;;;;;11.34;69.98;97336.84;4912043;28;20652;-83
2023/12/26 10:36:48;;;;;;;2.58;1.10;;;;;;;11.08;70.81;97325.38;4894295;28;20250;-84
2023/12/26 10:39:15;;;;;;;1.23;0.93;;;;;;;11.15;70.06;97323.38;4908900;28;20273;-83
2023/12/26 10:41:46;;;;;;;2.90;1.42;;;;;;;11.11;71.18;97317.06;4921342;28;20200;-84
2023/12/26 10:44:14;;;;;;;2.20;1.20;;;;;;;11.05;71.54;97319.63;4906542;28;20017;-84
2023/12/26 10:46:41;;;;;;;2.97;1.65;;;;;;;10.56;72.55;97316.16;4889486;28;20230;-84
2023/12/26 10:49:09;;;;;;;1.88;1.42;;;;;;;11.15;71.02;97334.56;4879246;28;20192;-84
2023/12/26 10:51:39;;;;;;;1.75;1.23;;;;;;;10.83;72.25;97330.03;4909610;28;20252;-83
2023/12/26 10:54:24;;;;;;;4.03;1.40;;;;;;;11.29;70.46;97324.53;4881025;28;20641;-84
2023/12/26 10:56:51;;;;;;;3.83;1.80;;;;;;;11.24;70.46;97327.09;4886295;28;20214;-85
2023/12/26 13:52:17;;;;;;;3.30;1.13;;;;;;;11.72;70.29;97353.38;4920499;28;20203;-85
2023/12/26 13:54:42;;;;;;;2.70;1.80;;;;;;;11.81;69.64;97355.31;4887961;28;20649;-83
2023/12/26 13:57:08;;;;;;;1.92;1.27;;;;;;;11.94;69.41;97376.84;4887773;28;20222;-85
2023/12/26 13:59:33;;;;;;;2.38;1.33;;;;;;;11.74;70.45;97372.22;4873794;28;20452;-82
2023/12/26 14:01:58;;;;;;;1.58;1.30;;;;;;;11.88;70.10;97368.16;4900934;28;20654;-85
2023/12/26 14:04:24;;;;;;;2.35;0.98;;;;;;;11.90;69.87;97378.34;4890180;28;20233;-81
2023/12/26 14:06:51;;;;;;;2.55;1.48;;;;;;;11.92;69.68;97374.47;4906144;28;20243;-82
2023/12/26 14:09:17;;;;;;;1.95;1.27;;;;;;;11.95;69.91;97388.88;4908284;28;20704;-82
2023/12/26 14:11:42;;;;;;;1.90;1.27;;;;;;;11.87;69.01;97379.63;4890622;28;20285;-82
2023/12/26 14:14:07;;;;;;;1.83;1.33;;;;;;;11.79;70.00;97386.09;4890359;28;20708;-83
2023/12/26 14:16:33;;;;;;;2.22;1.60;;;;;;;11.91;70.06;97377.34;4890803;28;20031;-82
2023/12/26 14:18:58;;;;;;;2.10;1.30;;;;;;;11.80;69.71;97376.44;4876837;28;20289;-84